.
WxDataArchive / Data Records for 2014-05-21
2014-05-20 May 2014 2014-05-22

Data Records for Wednesday, 21 May 2014

Time	Temp	Chill	HIndex	Humid	Dewpt	 Wind 	HiWind	WindDir	Rain 	Barom
-----	----	-----	------	-----	-----	------	------	-------	-----	-----
00:00	73.2	73.2	73.2	69	62.4	0	2	338	0.00	29.878 
00:05	73.2	73.2	73.2	69	62.4	0	0	---	0.00	29.878 
00:10	73.0	73.0	73.0	69	62.2	0	0	---	0.00	29.878 
00:15	73.0	73.0	73.0	70	62.6	0	1	338	0.00	29.875 
00:20	72.8	72.8	72.8	70	62.4	0	0	---	0.00	29.875 
00:25	72.8	72.8	72.8	70	62.4	0	1	338	0.00	29.875 
00:30	72.7	72.7	72.7	72	63.1	0	1	338	0.00	29.880 
00:35	72.5	72.5	72.5	73	63.3	0	0	---	0.00	29.880 
00:40	72.3	72.3	72.3	73	63.1	0	0	---	0.00	29.880 
00:45	72.1	72.1	72.1	74	63.3	0	1	338	0.00	29.887 
00:50	72.1	72.1	72.1	74	63.3	0	3	338	0.00	29.887 
00:55	71.8	71.8	71.8	78	64.6	4	7	338	0.08	29.887 
01:00	70.1	70.1	70.1	84	65.0	2	6	315	0.04	29.916 
01:05	69.3	69.3	69.3	86	64.9	1	3	315	0.01	29.916 
01:10	68.8	68.8	68.8	87	64.8	0	1	315	0.00	29.916 
01:15	68.4	68.4	68.4	88	64.7	0	2	315	0.01	29.902 
01:20	68.3	68.3	68.3	89	64.9	0	1	315	0.00	29.902 
01:25	68.1	68.1	68.1	90	65.0	0	0	---	0.01	29.902 
01:30	68.1	68.1	68.1	90	65.0	0	1	315	0.00	29.922 
01:35	67.9	67.9	67.9	91	65.2	0	2	315	0.00	29.922 
01:40	67.8	67.8	67.8	91	65.1	1	4	315	0.00	29.922 
01:45	67.3	67.3	67.3	91	64.6	1	5	68	0.02	29.893 
01:50	66.8	66.8	66.8	90	63.8	3	6	68	0.03	29.893 
01:55	66.3	66.3	66.3	91	63.6	1	5	90	0.00	29.893 
02:00	65.6	65.6	65.6	90	62.6	3	5	315	0.01	29.857 
02:05	65.5	65.5	65.5	91	62.8	3	4	315	0.00	29.857 
02:10	65.3	65.3	65.3	90	62.3	1	3	292	0.00	29.857 
02:15	65.3	65.3	65.3	91	62.6	0	1	292	0.00	29.876 
02:20	65.2	65.2	65.2	91	62.5	0	2	292	0.00	29.876 
02:25	65.2	65.2	65.2	91	62.5	0	0	---	0.00	29.876 
02:30	65.0	65.0	65.0	92	62.6	0	0	---	0.00	29.854 
02:35	64.8	64.8	64.8	92	62.4	0	1	292	0.00	29.854 
02:40	64.8	64.8	64.8	92	62.4	0	0	---	0.00	29.854 
02:45	64.7	64.7	64.7	92	62.3	0	0	---	0.00	29.851 
02:50	64.7	64.7	64.7	92	62.3	0	0	---	0.00	29.851 
02:55	64.5	64.5	64.5	92	62.1	0	0	---	0.00	29.851 
03:00	64.5	64.5	64.5	93	62.4	0	0	---	0.00	29.827 
03:05	64.5	64.5	64.5	93	62.4	0	0	---	0.00	29.827 
03:10	64.5	64.5	64.5	93	62.4	0	1	292	0.00	29.827 
03:15	64.7	64.7	64.7	93	62.6	0	0	---	0.00	29.823 
03:20	64.7	64.7	64.7	93	62.6	0	0	---	0.00	29.823 
03:25	64.8	64.8	64.8	94	63.0	0	0	---	0.00	29.823 
03:30	64.8	64.8	64.8	94	63.0	0	0	---	0.00	29.822 
03:35	65.0	65.0	65.0	94	63.2	0	0	---	0.00	29.822 
03:40	65.2	65.2	65.2	94	63.4	0	1	292	0.00	29.822 
03:45	65.3	65.3	65.3	94	63.5	0	0	---	0.00	29.808 
03:50	65.6	65.6	65.6	94	63.8	0	0	---	0.00	29.808 
03:55	65.8	65.8	65.8	94	64.0	0	1	292	0.00	29.808 
04:00	66.0	66.0	66.0	94	64.2	0	0	---	0.00	29.812 
04:05	66.0	66.0	66.0	94	64.2	0	0	---	0.00	29.812 
04:10	66.0	66.0	66.0	94	64.2	0	0	---	0.00	29.812 
04:15	66.1	66.1	66.1	95	64.6	0	1	292	0.00	29.809 
04:20	66.1	66.1	66.1	95	64.6	0	1	292	0.00	29.809 
04:25	66.1	66.1	66.1	94	64.3	0	1	292	0.00	29.809 
04:30	66.1	66.1	66.1	94	64.3	0	0	---	0.00	29.819 
04:35	66.1	66.1	66.1	94	64.3	0	0	---	0.00	29.819 
04:40	66.0	66.0	66.0	94	64.2	0	1	292	0.00	29.819 
04:45	66.0	66.0	66.0	94	64.2	0	2	292	0.00	29.814 
04:50	65.8	65.8	65.8	94	64.0	0	1	292	0.00	29.814 
04:55	65.8	65.8	65.8	94	64.0	0	1	292	0.00	29.814 
05:00	65.8	65.8	65.8	94	64.0	0	1	292	0.00	29.820 
05:05	65.8	65.8	65.8	94	64.0	0	0	---	0.00	29.820 
05:10	65.6	65.6	65.6	94	63.8	0	1	292	0.00	29.820 
05:15	65.6	65.6	65.6	94	63.8	0	1	292	0.00	29.817 
05:20	65.6	65.6	65.6	94	63.8	0	0	---	0.00	29.817 
05:25	65.5	65.5	65.5	94	63.7	0	0	---	0.00	29.817 
05:30	65.5	65.5	65.5	94	63.7	0	0	---	0.00	29.821 
05:35	65.5	65.5	65.5	94	63.7	0	0	---	0.00	29.821 
05:40	65.5	65.5	65.5	94	63.7	0	0	---	0.00	29.821 
05:45	65.3	65.3	65.3	94	63.5	0	1	292	0.00	29.823 
05:50	65.3	65.3	65.3	94	63.5	0	1	292	0.00	29.823 
05:55	65.2	65.2	65.2	94	63.4	0	2	292	0.00	29.823 
06:00	65.2	65.2	65.2	94	63.4	0	1	292	0.00	29.816 
06:05	65.2	65.2	65.2	93	63.1	0	1	292	0.00	29.816 
06:10	65.2	65.2	65.2	93	63.1	0	1	292	0.00	29.816 
06:15	65.2	65.2	65.2	93	63.1	0	1	292	0.00	29.827 
06:20	65.0	65.0	65.0	93	62.9	0	0	---	0.00	29.827 
06:25	65.0	65.0	65.0	93	62.9	0	1	292	0.00	29.827 
06:30	65.0	65.0	65.0	93	62.9	0	0	---	0.00	29.827 
06:35	64.8	64.8	64.8	93	62.7	0	0	---	0.00	29.827 
06:40	64.7	64.7	64.7	93	62.6	0	0	---	0.00	29.827 
06:45	64.5	64.5	64.5	93	62.4	0	0	---	0.00	29.840 
06:50	64.5	64.5	64.5	93	62.4	0	0	---	0.00	29.840 
06:55	64.5	64.5	64.5	93	62.4	0	0	---	0.00	29.840 
07:00	64.5	64.5	64.5	93	62.4	0	0	---	0.00	29.843 
07:05	64.5	64.5	64.5	93	62.4	0	0	---	0.00	29.843 
07:10	64.5	64.5	64.5	94	62.7	0	0	---	0.00	29.843 
07:15	64.5	64.5	64.5	94	62.7	0	0	---	0.00	29.850 
07:20	64.5	64.5	64.5	94	62.7	0	0	---	0.00	29.850 
07:25	64.5	64.5	64.5	94	62.7	0	1	292	0.00	29.850 
07:30	64.7	64.7	64.7	94	62.9	0	1	292	0.03	29.869 
07:35	64.7	64.7	64.7	94	62.9	0	1	292	0.04	29.869 
07:40	64.7	64.7	64.7	94	62.9	0	0	---	0.02	29.869 
07:45	64.5	64.5	64.5	94	62.7	0	2	292	0.01	29.824 
07:50	64.3	64.3	64.3	94	62.5	0	1	292	0.00	29.824 
07:55	64.2	64.2	64.2	94	62.4	0	2	292	0.00	29.824 
08:00	64.2	64.2	64.2	94	62.4	0	1	292	0.00	29.843 
08:05	63.9	63.9	63.9	94	62.1	0	3	292	0.00	29.843 
08:10	63.7	63.7	63.7	94	61.9	0	1	292	0.00	29.843 
08:15	63.4	63.4	63.4	94	61.6	0	1	292	0.00	29.840 
08:20	63.4	63.4	63.4	94	61.6	0	0	---	0.00	29.840 
08:25	63.4	63.4	63.4	94	61.6	0	1	292	0.00	29.840 
08:30	63.4	63.4	63.4	95	61.9	0	2	292	0.00	29.820 
08:35	63.5	63.5	63.5	95	62.0	0	1	292	0.00	29.820 
08:40	63.9	63.9	63.9	95	62.4	0	2	292	0.00	29.820 
08:45	64.2	64.2	64.2	95	62.7	0	1	292	0.00	29.825 
08:50	64.7	64.7	64.7	95	63.2	0	1	292	0.00	29.825 
08:55	65.3	65.3	65.3	95	63.8	0	0	---	0.00	29.825 
09:00	66.0	66.0	66.0	95	64.5	0	0	---	0.00	29.816 
09:05	66.4	66.4	66.4	95	64.9	0	1	292	0.00	29.816 
09:10	66.3	66.3	66.3	95	64.8	0	0	---	0.00	29.816 
09:15	66.6	66.6	66.6	95	65.1	0	0	---	0.00	29.822 
09:20	66.9	66.9	66.9	95	65.4	0	0	---	0.00	29.822 
09:25	67.3	67.3	67.3	95	65.8	0	0	---	0.00	29.822 
09:30	67.6	67.6	67.6	95	66.1	0	0	---	0.00	29.826 
09:35	68.4	68.4	68.4	95	66.9	0	1	292	0.00	29.826 
09:40	68.6	68.6	68.6	94	66.8	0	1	292	0.00	29.826 
09:45	68.3	68.3	68.3	94	66.5	0	2	292	0.00	29.840 
09:50	68.1	68.1	68.1	93	66.0	0	2	292	0.00	29.840 
09:55	67.9	67.9	67.9	93	65.8	0	2	292	0.00	29.840 
10:00	68.1	68.1	68.1	93	66.0	1	3	292	0.00	29.843 
10:05	68.4	68.4	68.4	92	66.0	0	2	292	0.00	29.843 
10:10	69.1	69.1	69.1	92	66.7	0	3	292	0.00	29.843 
10:15	69.4	69.4	69.4	90	66.3	1	3	292	0.00	29.841 
10:20	69.9	69.9	69.9	88	66.2	0	3	292	0.00	29.841 
10:25	70.1	70.1	70.1	86	65.7	1	3	292	0.00	29.841 
10:30	70.6	70.6	70.6	84	65.5	1	3	292	0.00	29.845 
10:35	70.8	70.8	70.8	83	65.4	2	4	292	0.00	29.845 
10:40	71.1	71.1	71.1	82	65.3	0	1	292	0.00	29.845 
10:45	71.3	71.3	71.3	81	65.2	1	3	292	0.00	29.845 
10:50	71.5	71.5	71.5	81	65.4	1	3	292	0.00	29.845 
10:55	71.8	71.8	71.8	81	65.6	0	3	292	0.00	29.845 
11:00	72.0	72.0	72.0	80	65.5	0	2	292	0.00	29.838 
11:05	72.3	72.3	72.3	80	65.8	1	3	292	0.00	29.838 
11:10	72.7	72.7	72.7	78	65.4	1	2	292	0.00	29.838 
11:15	73.3	73.3	73.3	79	66.4	0	2	292	0.00	29.839 
11:20	73.5	73.5	73.5	76	65.5	2	4	292	0.00	29.839 
11:25	73.7	73.7	73.7	76	65.6	1	3	292	0.00	29.839 
11:30	73.7	73.7	73.7	77	66.0	0	3	292	0.00	29.841 
11:35	74.0	74.0	74.0	77	66.3	0	3	292	0.00	29.841 
11:40	74.6	74.6	74.6	76	66.5	1	3	292	0.00	29.841 
11:45	74.7	74.7	74.7	74	65.8	1	3	292	0.00	29.838 
11:50	75.1	75.1	76.3	75	66.6	1	3	292	0.00	29.838 
11:55	75.4	75.4	76.6	75	66.9	1	2	292	0.00	29.838 
12:00	75.6	75.6	77.0	74	66.7	1	3	292	0.00	29.840 
12:05	76.0	76.0	77.5	73	66.7	1	3	292	0.00	29.840 
12:10	76.3	76.3	77.8	73	67.0	1	4	292	0.00	29.840 
12:15	76.5	76.5	78.1	73	67.2	1	2	292	0.00	29.849 
12:20	76.5	76.5	78.1	72	66.8	1	4	292	0.00	29.849 
12:25	76.5	76.5	78.1	73	67.2	1	3	292	0.00	29.849 
12:30	76.8	76.8	78.5	71	66.7	2	4	292	0.00	29.850 
12:35	77.0	77.0	78.8	71	66.9	1	4	292	0.00	29.850 
12:40	77.2	77.2	79.0	71	67.0	2	5	292	0.00	29.850 
12:45	77.7	77.7	79.7	71	67.5	2	5	292	0.00	29.842 
12:50	77.7	77.7	79.6	69	66.7	3	5	292	0.00	29.842 
12:55	78.1	78.1	80.2	72	68.3	1	3	292	0.00	29.842 
13:00	78.3	78.3	80.4	70	67.7	2	4	292	0.00	29.838 
13:05	78.1	78.1	80.1	69	67.1	1	3	292	0.00	29.838 
13:10	78.3	78.3	80.4	69	67.3	1	4	292	0.00	29.838 
13:15	78.1	78.1	80.1	69	67.1	2	4	292	0.00	29.840 
13:20	77.9	77.9	79.9	69	66.9	2	4	292	0.00	29.840 
13:25	77.7	77.7	79.6	69	66.7	2	4	292	0.00	29.840 
13:30	77.7	77.7	79.6	70	67.1	2	4	292	0.00	29.840 
13:35	78.1	78.1	80.2	71	67.9	1	3	292	0.00	29.840 
13:40	78.5	78.5	80.7	69	67.5	2	4	292	0.00	29.840 
13:45	78.8	78.8	81.1	69	67.7	1	2	292	0.00	29.839 
13:50	79.0	79.0	81.3	69	67.9	1	4	292	0.00	29.839 
13:55	79.0	79.0	81.3	69	67.9	1	4	292	0.00	29.839 
14:00	79.2	79.2	81.6	69	68.1	2	4	292	0.00	29.837 
14:05	79.8	79.8	82.5	69	68.7	1	3	292	0.00	29.837 
14:10	79.9	79.9	82.3	66	67.5	2	5	292	0.00	29.837 
14:15	80.1	80.1	82.7	67	68.1	1	3	292	0.00	29.835 
14:20	79.9	79.9	82.3	66	67.5	1	4	292	0.00	29.835 
14:25	79.9	79.9	82.2	65	67.1	2	4	292	0.00	29.835 
14:30	79.8	79.8	82.2	66	67.4	2	4	292	0.00	29.836 
14:35	79.8	79.8	82.3	67	67.8	2	4	292	0.00	29.836 
14:40	80.1	80.1	82.6	66	67.7	2	4	292	0.00	29.836 
14:45	80.1	80.1	82.4	64	66.8	2	4	292	0.00	29.840 
14:50	80.3	80.3	82.8	65	67.4	3	5	292	0.00	29.840 
14:55	80.9	80.9	83.7	65	68.0	2	3	292	0.00	29.840 
15:00	80.9	80.9	83.4	63	67.1	2	4	292	0.00	29.838 
15:05	81.2	81.2	83.6	62	66.9	2	4	292	0.00	29.838 
15:10	81.8	81.8	84.5	62	67.5	2	4	292	0.00	29.838 
15:15	82.0	82.0	84.6	61	67.2	2	5	292	0.00	29.836 
15:20	82.0	82.0	84.6	61	67.2	2	3	292	0.00	29.836 
15:25	81.8	81.8	84.5	62	67.5	2	4	292	0.00	29.836 
15:30	82.4	82.4	85.2	61	67.6	1	3	292	0.00	29.832 
15:35	82.8	82.8	85.4	59	67.0	2	6	292	0.00	29.832 
15:40	82.6	82.6	85.1	59	66.8	2	4	292	0.00	29.832 
15:45	82.0	82.0	84.1	58	65.7	2	5	292	0.00	29.823 
15:50	82.4	82.4	84.8	59	66.6	1	3	292	0.00	29.823 
15:55	82.8	82.8	85.0	57	66.0	2	4	292	0.00	29.823 
16:00	82.4	82.4	84.6	58	66.1	1	3	292	0.00	29.819 
16:05	82.2	82.2	84.7	60	66.9	2	4	292	0.00	29.819 
16:10	82.0	82.0	84.4	60	66.7	1	3	292	0.00	29.819 
16:15	82.2	82.2	84.5	59	66.4	1	4	292	0.00	29.809 
16:20	83.0	83.0	85.3	57	66.2	2	5	292	0.00	29.809 
16:25	83.0	83.0	84.9	55	65.1	2	5	292	0.00	29.809 
16:30	82.4	82.4	84.4	57	65.6	1	4	315	0.00	29.807 
16:35	82.6	82.6	84.3	55	64.8	2	5	315	0.00	29.807 
16:40	82.8	82.8	84.8	56	65.5	2	4	315	0.00	29.807 
16:45	83.2	83.2	85.1	55	65.3	3	6	292	0.00	29.802 
16:50	83.4	83.4	85.0	53	64.4	2	4	292	0.00	29.802 
16:55	83.0	83.0	84.7	54	64.6	2	5	315	0.00	29.802 
17:00	83.4	83.4	85.2	54	65.0	2	4	315	0.00	29.793 
17:05	83.8	83.8	85.3	52	64.3	2	4	292	0.00	29.793 
17:10	84.0	84.0	85.3	51	63.9	3	6	338	0.00	29.793 
17:15	83.6	83.6	85.0	52	64.1	2	5	338	0.00	29.788 
17:20	84.0	84.0	85.6	52	64.4	2	4	292	0.00	29.788 
17:25	84.1	84.1	85.5	51	64.0	2	4	292	0.00	29.788 
17:30	84.5	84.5	86.3	52	64.9	1	3	292	0.00	29.784 
17:35	84.7	84.7	85.8	49	63.4	2	4	292	0.00	29.784 
17:40	84.3	84.3	84.9	47	61.8	2	5	292	0.00	29.784 
17:45	84.1	84.1	84.6	47	61.7	2	5	338	0.00	29.788 
17:50	84.1	84.1	84.8	48	62.3	2	5	338	0.00	29.788 
17:55	83.6	83.6	84.2	48	61.8	2	4	292	0.00	29.788 
18:00	83.2	83.2	84.1	50	62.6	1	4	292	0.00	29.791 
18:05	82.8	82.8	83.5	49	61.7	2	4	292	0.00	29.791 
18:10	83.0	83.0	83.7	49	61.8	2	4	292	0.00	29.791 
18:15	83.4	83.4	84.2	49	62.2	2	3	292	0.00	29.791 
18:20	83.4	83.4	84.2	49	62.2	2	4	292	0.00	29.791 
18:25	83.6	83.6	84.6	50	63.0	1	3	292	0.00	29.791 
18:30	83.8	83.8	84.3	47	61.4	2	4	315	0.00	29.804 
18:35	83.8	83.8	84.1	46	60.8	2	5	315	0.00	29.804 
18:40	83.2	83.2	83.4	46	60.2	2	4	315	0.00	29.804 
18:45	83.0	83.0	83.4	47	60.7	1	3	315	0.00	29.807 
18:50	83.2	83.2	83.6	47	60.8	1	4	315	0.00	29.807 
18:55	83.2	83.2	83.3	45	59.6	2	3	315	0.00	29.807 
19:00	83.2	83.2	83.1	44	59.0	2	4	292	0.00	29.809 
19:05	83.2	83.2	83.3	45	59.6	1	4	292	0.00	29.809 
19:10	83.2	83.2	83.1	44	59.0	2	4	292	0.00	29.809 
19:15	83.0	83.0	82.8	43	58.2	2	4	315	0.00	29.811 
19:20	83.0	83.0	82.8	43	58.2	1	3	315	0.00	29.811 
19:25	83.0	83.0	82.5	41	56.8	1	4	315	0.00	29.811 
19:30	82.8	82.8	82.2	40	56.0	2	4	315	0.00	29.814 
19:35	82.6	82.6	82.0	40	55.8	2	4	315	0.00	29.814 
19:40	82.4	82.4	81.8	40	55.6	1	3	315	0.00	29.814 
19:45	82.2	82.2	81.5	39	54.7	1	4	315	0.00	29.820 
19:50	81.8	81.8	81.3	40	55.1	1	2	315	0.00	29.820 
19:55	81.6	81.6	81.2	41	55.6	1	2	315	0.00	29.820 
20:00	81.4	81.4	81.2	42	56.1	1	3	315	0.00	29.826 
20:05	81.2	81.2	81.0	42	55.9	1	4	315	0.00	29.826 
20:10	81.1	81.1	81.0	43	56.5	1	3	315	0.00	29.826 
20:15	80.7	80.7	80.7	43	56.1	1	3	315	0.00	29.826 
20:20	80.5	80.5	80.5	42	55.3	1	2	315	0.00	29.826 
20:25	80.1	80.1	80.1	41	54.2	0	2	315	0.00	29.826 
20:30	79.9	79.9	79.9	40	53.4	1	1	315	0.00	29.833 
20:35	79.6	79.6	79.7	41	53.8	0	2	315	0.00	29.833 
20:40	79.4	79.4	79.7	42	54.3	0	1	315	0.00	29.833 
20:45	78.8	78.8	79.4	43	54.4	0	0	---	0.00	29.843 
20:50	78.5	78.5	79.2	43	54.1	0	0	---	0.00	29.843 
20:55	78.1	78.1	79.0	44	54.4	0	0	---	0.00	29.843 
21:00	77.6	77.6	78.8	45	54.6	0	0	---	0.00	29.844 
21:05	77.0	77.0	78.5	46	54.6	0	0	---	0.00	29.844 
21:10	76.7	76.7	78.4	48	55.5	0	0	---	0.00	29.844 
21:15	76.0	76.0	78.1	50	56.0	0	0	---	0.00	29.842 
21:20	75.3	75.3	77.7	50	55.4	0	0	---	0.00	29.842 
21:25	74.6	74.6	74.6	51	55.3	0	0	---	0.00	29.842 
21:30	73.9	73.9	73.9	52	55.1	0	0	---	0.00	29.841 
21:35	73.2	73.2	73.2	54	55.5	0	0	---	0.00	29.841 
21:40	72.5	72.5	72.5	57	56.4	0	0	---	0.00	29.841 
21:45	72.0	72.0	72.0	58	56.4	0	0	---	0.00	29.846 
21:50	71.5	71.5	71.5	59	56.4	0	0	---	0.00	29.846 
21:55	70.9	70.9	70.9	60	56.3	0	0	---	0.00	29.846 
22:00	70.6	70.6	70.6	61	56.5	0	0	---	0.00	29.849 
22:05	70.3	70.3	70.3	62	56.7	0	0	---	0.00	29.849 
22:10	69.9	69.9	69.9	64	57.2	0	0	---	0.00	29.849 
22:15	69.6	69.6	69.6	65	57.3	0	0	---	0.00	29.845 
22:20	69.4	69.4	69.4	65	57.1	0	0	---	0.00	29.845 
22:25	69.1	69.1	69.1	65	56.8	0	0	---	0.00	29.845 
22:30	68.9	68.9	68.9	66	57.1	0	0	---	0.00	29.851 
22:35	68.8	68.8	68.8	66	57.0	0	0	---	0.00	29.851 
22:40	68.6	68.6	68.6	67	57.2	0	0	---	0.00	29.851 
22:45	68.4	68.4	68.4	68	57.4	0	0	---	0.00	29.852 
22:50	68.3	68.3	68.3	69	57.7	0	0	---	0.00	29.852 
22:55	68.1	68.1	68.1	69	57.5	0	0	---	0.00	29.852 
23:00	67.8	67.8	67.8	70	57.6	0	0	---	0.00	29.850 
23:05	67.6	67.6	67.6	71	57.9	0	0	---	0.00	29.850 
23:10	67.4	67.4	67.4	72	58.1	0	0	---	0.00	29.850 
23:15	67.1	67.1	67.1	73	58.1	0	0	---	0.00	29.852 
23:20	67.1	67.1	67.1	71	57.4	0	1	315	0.00	29.852 
23:25	67.3	67.3	67.3	70	57.2	0	0	---	0.00	29.852 
23:30	67.8	67.8	67.8	70	57.6	0	0	---	0.00	29.844 
23:35	68.1	68.1	68.1	69	57.5	0	0	---	0.00	29.844 
23:40	68.3	68.3	68.3	69	57.7	0	0	---	0.00	29.844 
23:45	68.3	68.3	68.3	69	57.7	0	0	---	0.00	29.846 
23:50	68.4	68.4	68.4	69	57.8	0	0	---	0.00	29.846 
23:55	68.4	68.4	68.4	69	57.8	0	0	---	0.00	29.846 

CoCoRaHS
IN-AL-39
A2 Web Hosting
Creative Commons License
GoDaddy
search engine by freefind advanced

loaded 2018-11-16 00:07:48 • last modified 2010-11-18 10:43:29
Privacy PolicyDisclaimer
• wx.awcolley.com is powered by PmWiki v.2002016 •
• all content (unless otherwise noted) © 2018 A W Colley